Time;durP1;ratioP1;P1;durP2;ratioP2;P2;SDS_P1;SDS_P2;PMS_P1;PMS_P2;Temp;Humidity;BMP_temperature;BMP_pressure;BME280_temperature;BME280_humidity;BME280_pressure;Samples;Min_cycle;Max_cycle;Signal;HPM_P1;HPM_P2
2022/05/27 00:00:29;;;;;;;1.17;1.05;;;23.30;38.90;;;;;;8296213;28;20045;-40
2022/05/27 00:04:30;;;;;;;1.33;1.17;;;23.30;38.90;;;;;;8296420;28;20495;-40
2022/05/27 00:08:30;;;;;;;1.20;1.10;;;23.30;38.90;;;;;;8296469;28;20053;-39
2022/05/27 00:12:31;;;;;;;1.17;0.90;;;23.30;38.90;;;;;;8295205;28;20042;-39
2022/05/27 00:16:31;;;;;;;1.30;1.20;;;23.30;38.90;;;;;;8296047;28;20042;-39
2022/05/27 00:20:32;;;;;;;1.20;1.00;;;23.30;38.90;;;;;;8295928;28;20065;-39
2022/05/27 00:24:33;;;;;;;1.50;1.17;;;23.30;38.90;;;;;;8295549;28;20124;-40
2022/05/27 00:28:33;;;;;;;1.03;1.03;;;23.30;39.00;;;;;;8295939;28;20431;-39
2022/05/27 00:32:37;;;;;;;1.23;1.00;;;23.30;39.00;;;;;;8295430;28;20042;-40
2022/05/27 00:36:37;;;;;;;1.63;1.17;;;23.30;39.00;;;;;;8294407;28;20618;-40
2022/05/27 00:40:41;;;;;;;0.87;0.87;;;23.30;39.00;;;;;;8295582;28;20041;-40
2022/05/27 00:44:41;;;;;;;1.65;1.10;;;23.20;38.90;;;;;;8295284;28;20034;-39
2022/05/27 00:48:43;;;;;;;1.17;1.00;;;23.20;38.90;;;;;;8295238;28;20040;-40
2022/05/27 00:52:45;;;;;;;1.80;1.20;;;23.20;39.00;;;;;;8294630;28;20052;-39
2022/05/27 00:56:53;;;;;;;1.42;1.10;;;23.20;39.00;;;;;;8294948;28;20394;-40
2022/05/27 01:00:54;;;;;;;1.92;1.00;;;23.20;39.00;;;;;;8294291;28;20487;-40
2022/05/27 01:04:57;;;;;;;1.20;1.00;;;23.20;39.00;;;;;;8294474;28;20026;-40
2022/05/27 01:08:57;;;;;;;1.50;1.13;;;23.20;39.00;;;;;;8294470;28;20049;-40
2022/05/27 01:13:31;;;;;;;1.47;1.00;;;23.20;39.00;;;;;;8293521;28;20038;-39
2022/05/27 01:17:53;;;;;;;2.75;1.30;;;23.10;39.00;;;;;;8294100;28;20352;-40
2022/05/27 01:22:27;;;;;;;1.55;1.30;;;23.20;39.00;;;;;;8293507;28;20327;-40
2022/05/27 01:26:54;;;;;;;1.08;0.98;;;23.10;39.00;;;;;;8293822;28;20033;-40
2022/05/27 01:31:35;;;;;;;1.42;1.13;;;23.10;39.00;;;;;;8264979;28;20050;-40
2022/05/27 01:35:44;;;;;;;1.42;1.10;;;23.10;39.00;;;;;;8293784;28;20040;-40
2022/05/27 01:40:02;;;;;;;1.00;0.90;;;23.10;39.10;;;;;;8293386;28;20249;-41
2022/05/27 01:44:26;;;;;;;0.93;0.93;;;23.10;39.10;;;;;;8293563;28;20527;-40
2022/05/27 01:48:34;;;;;;;1.70;1.30;;;23.10;39.10;;;;;;8292399;28;20034;-40
2022/05/27 01:52:50;;;;;;;3.38;1.13;;;23.00;39.10;;;;;;8292887;28;20540;-41
2022/05/27 01:57:04;;;;;;;1.20;1.10;;;23.00;39.00;;;;;;8292722;28;20041;-41
2022/05/27 02:01:09;;;;;;;1.63;1.00;;;23.00;39.10;;;;;;8292210;28;20026;-41
2022/05/27 02:05:33;;;;;;;2.63;1.00;;;23.00;39.10;;;;;;8293120;28;20569;-40
2022/05/27 02:09:45;;;;;;;3.22;1.08;;;23.00;39.10;;;;;;8292250;28;20538;-41
2022/05/27 02:14:08;;;;;;;1.23;1.00;;;22.90;39.00;;;;;;8292503;28;20042;-40
2022/05/27 02:18:27;;;;;;;0.85;0.80;;;23.00;39.10;;;;;;8291802;28;20038;-41
2022/05/27 02:22:35;;;;;;;1.40;1.10;;;23.00;39.10;;;;;;8292195;28;20513;-40
2022/05/27 02:26:44;;;;;;;1.20;1.10;;;22.90;39.10;;;;;;8291959;28;20029;-40
2022/05/27 02:30:49;;;;;;;1.20;1.10;;;22.90;39.10;;;;;;8291363;28;20060;-40
2022/05/27 02:35:09;;;;;;;0.93;0.90;;;22.90;39.10;;;;;;8292062;28;20058;-39
2022/05/27 02:39:10;;;;;;;1.90;1.02;;;22.90;39.10;;;;;;8291069;28;20041;-41
2022/05/27 02:43:33;;;;;;;4.85;1.40;;;22.90;39.10;;;;;;8291848;28;20440;-41
2022/05/27 02:47:47;;;;;;;1.20;1.10;;;22.90;39.20;;;;;;8291054;28;20038;-41
2022/05/27 02:52:02;;;;;;;0.85;0.70;;;22.90;39.20;;;;;;8290762;28;20415;-40
2022/05/27 02:56:24;;;;;;;1.50;1.10;;;22.80;39.10;;;;;;8291376;28;20030;-39
2022/05/27 03:00:30;;;;;;;1.75;1.00;;;22.80;39.10;;;;;;8290349;28;20042;-40
2022/05/27 03:04:30;;;;;;;1.10;1.00;;;22.80;39.10;;;;;;8291582;28;20531;-40
2022/05/27 03:08:31;;;;;;;1.10;1.00;;;22.80;39.20;;;;;;8291140;28;20026;-40
2022/05/27 03:12:31;;;;;;;1.30;1.10;;;22.80;39.20;;;;;;8290383;28;20069;-40
2022/05/27 03:16:48;;;;;;;1.90;1.10;;;22.80;39.20;;;;;;8291125;28;20030;-40
2022/05/27 03:21:05;;;;;;;1.45;1.17;;;22.80;39.20;;;;;;8290959;28;20081;-40
2022/05/27 03:25:09;;;;;;;1.45;0.93;;;22.80;39.20;;;;;;8291174;28;20117;-40
2022/05/27 03:29:28;;;;;;;1.15;0.90;;;22.80;39.20;;;;;;8290887;28;20037;-40
2022/05/27 03:33:37;;;;;;;0.90;0.90;;;22.80;39.20;;;;;;8290144;28;20463;-40
2022/05/27 03:37:48;;;;;;;1.00;1.00;;;22.80;39.20;;;;;;8291043;28;20045;-40
2022/05/27 03:41:58;;;;;;;1.08;0.90;;;22.80;39.20;;;;;;8290506;28;20042;-40
2022/05/27 03:46:00;;;;;;;0.90;0.90;;;22.70;39.20;;;;;;8290080;28;20046;-40
2022/05/27 03:50:02;;;;;;;1.10;1.00;;;22.70;39.20;;;;;;8290999;28;20137;-40
2022/05/27 03:54:04;;;;;;;;;;;22.70;39.20;;;;;;8290142;28;20030;-40
2022/05/27 03:58:05;;;;;;;1.67;1.23;;;22.70;39.20;;;;;;8290670;28;19917;-40
2022/05/27 04:02:06;;;;;;;1.20;1.10;;;22.70;39.20;;;;;;8290644;28;20064;-40
2022/05/27 04:06:06;;;;;;;1.13;1.02;;;22.70;39.30;;;;;;8289668;28;20464;-40
2022/05/27 04:10:08;;;;;;;1.10;1.00;;;22.70;39.30;;;;;;8290530;28;20046;-40
2022/05/27 04:14:10;;;;;;;1.20;0.90;;;22.60;39.20;;;;;;8294925;28;20490;-40
2022/05/27 04:18:10;;;;;;;1.77;1.23;;;22.60;39.20;;;;;;8295644;28;20034;-40
2022/05/27 04:22:11;;;;;;;1.38;1.00;;;22.60;39.20;;;;;;8295949;28;20521;-40
2022/05/27 04:26:12;;;;;;;1.13;0.90;;;22.60;39.10;;;;;;8295860;28;20592;-40
2022/05/27 04:30:13;;;;;;;0.80;0.80;;;22.70;39.20;;;;;;8295459;28;20081;-40
2022/05/27 04:34:14;;;;;;;1.00;0.90;;;22.60;39.10;;;;;;8295453;28;20041;-41
2022/05/27 04:38:15;;;;;;;1.10;1.00;;;22.70;39.20;;;;;;8295702;28;20487;-40
2022/05/27 04:42:16;;;;;;;1.67;1.00;;;22.70;39.10;;;;;;8294596;28;20076;-40
2022/05/27 04:46:17;;;;;;;1.02;0.85;;;22.60;39.10;;;;;;8295798;28;20565;-41
2022/05/27 04:50:19;;;;;;;1.73;0.80;;;22.70;39.10;;;;;;8295132;28;20361;-40
2022/05/27 04:54:19;;;;;;;2.17;1.25;;;22.70;39.10;;;;;;8294770;28;20061;-41
2022/05/27 04:58:20;;;;;;;1.23;1.03;;;22.70;39.10;;;;;;8294505;28;20117;-40
2022/05/27 05:02:23;;;;;;;1.45;1.35;;;22.70;39.10;;;;;;8294894;28;20053;-40
2022/05/27 05:06:23;;;;;;;1.13;0.82;;;22.70;39.10;;;;;;8293958;28;20041;-40
2022/05/27 05:10:24;;;;;;;1.60;1.17;;;22.70;39.10;;;;;;8294359;28;20046;-40
2022/05/27 05:14:25;;;;;;;1.30;1.20;;;22.70;39.10;;;;;;8293991;28;20538;-40
2022/05/27 05:18:26;;;;;;;0.93;0.90;;;22.70;39.10;;;;;;8293431;28;20034;-40
2022/05/27 05:22:26;;;;;;;1.17;0.80;;;22.70;39.00;;;;;;8293803;28;20397;-40
2022/05/27 05:26:27;;;;;;;1.10;0.85;;;22.70;38.90;;;;;;8293485;28;20490;-40
2022/05/27 05:30:27;;;;;;;1.10;1.00;;;22.80;38.90;;;;;;8293327;28;20288;-40
2022/05/27 05:34:29;;;;;;;1.35;1.10;;;22.80;38.90;;;;;;8293469;28;20089;-40
2022/05/27 05:38:29;;;;;;;1.23;1.08;;;22.70;38.80;;;;;;8293589;28;20254;-40
2022/05/27 05:42:31;;;;;;;0.93;0.77;;;22.70;38.80;;;;;;8292828;28;20054;-40
2022/05/27 05:46:34;;;;;;;1.52;1.10;;;22.70;38.80;;;;;;8293680;28;20042;-40
2022/05/27 05:50:35;;;;;;;0.95;0.80;;;22.70;38.90;;;;;;8293149;28;20136;-40
2022/05/27 05:54:35;;;;;;;1.00;0.90;;;22.70;38.90;;;;;;8292482;28;20420;-40
2022/05/27 05:58:36;;;;;;;1.10;0.90;;;22.70;38.90;;;;;;8292939;28;20265;-40
2022/05/27 06:02:36;;;;;;;1.20;1.00;;;22.70;39.00;;;;;;8292739;28;20034;-40
2022/05/27 06:06:38;;;;;;;1.07;1.03;;;22.70;39.00;;;;;;8292009;28;20341;-39
2022/05/27 06:10:39;;;;;;;1.15;0.93;;;22.70;39.60;;;;;;8292372;28;20065;-39
2022/05/27 06:14:39;;;;;;;1.00;0.80;;;22.60;39.00;;;;;;8292228;28;20499;-40
2022/05/27 06:18:40;;;;;;;1.17;0.90;;;22.60;39.10;;;;;;8291729;28;20030;-40
2022/05/27 06:22:40;;;;;;;1.15;0.93;;;22.60;39.10;;;;;;8292047;28;20286;-40
2022/05/27 06:26:41;;;;;;;0.97;0.97;;;22.60;39.10;;;;;;8292663;28;20037;-40
2022/05/27 06:35:03;;;;;;;1.17;1.07;;;22.60;39.20;;;;;;8291823;28;20041;-40
2022/05/27 06:39:05;;;;;;;1.05;1.00;;;22.60;39.20;;;;;;8291067;28;20614;-40
2022/05/27 06:43:05;;;;;;;0.95;0.90;;;22.60;39.20;;;;;;8291341;28;20053;-38
2022/05/27 06:47:07;;;;;;;1.10;1.00;;;22.60;39.20;;;;;;8291510;28;20342;-40
2022/05/27 06:51:08;;;;;;;1.00;0.98;;;22.60;39.20;;;;;;8290699;28;20057;-39
2022/05/27 06:55:13;;;;;;;1.00;1.00;;;22.60;39.20;;;;;;8291552;28;20072;-39
2022/05/27 06:59:16;;;;;;;0.82;0.77;;;22.60;39.30;;;;;;8291497;28;20495;-40
2022/05/27 07:03:16;;;;;;;1.73;1.15;;;22.60;39.20;;;;;;8290524;28;20033;-40
2022/05/27 07:07:17;;;;;;;1.10;1.00;;;22.60;39.20;;;;;;8290568;28;20038;-40
2022/05/27 07:11:18;;;;;;;;;;;22.60;39.20;;;;;;8291399;28;20073;-40
2022/05/27 07:15:18;;;;;;;1.00;0.90;;;22.60;39.20;;;;;;8290136;28;19910;-40
2022/05/27 07:19:22;;;;;;;1.10;0.97;;;22.60;39.20;;;;;;8290602;28;20060;-40
2022/05/27 07:23:22;;;;;;;1.67;1.05;;;22.60;39.30;;;;;;8290891;28;20358;-39
2022/05/27 07:27:23;;;;;;;0.90;0.80;;;22.60;39.20;;;;;;8290228;28;20156;-39
2022/05/27 07:31:23;;;;;;;0.90;0.90;;;22.60;39.20;;;;;;8290871;28;20511;-39
2022/05/27 07:35:24;;;;;;;1.07;1.00;;;22.60;39.20;;;;;;8290710;28;20044;-39
2022/05/27 07:39:25;;;;;;;1.00;0.90;;;22.70;39.30;;;;;;8289930;28;20030;-39
2022/05/27 07:43:25;;;;;;;1.30;1.10;;;22.60;39.20;;;;;;8290721;28;20373;-39
2022/05/27 07:47:26;;;;;;;1.00;0.90;;;22.70;39.30;;;;;;8293242;28;20045;-39
2022/05/27 07:51:27;;;;;;;1.20;1.00;;;22.70;39.30;;;;;;8296183;28;20617;-40
2022/05/27 07:55:28;;;;;;;1.05;0.95;;;22.70;39.30;;;;;;8296335;28;20533;-40
2022/05/27 07:59:28;;;;;;;0.80;0.80;;;22.70;39.30;;;;;;8296202;28;20034;-40
2022/05/27 08:03:29;;;;;;;0.87;0.80;;;22.60;39.20;;;;;;8295405;28;20042;-40
2022/05/27 08:07:30;;;;;;;0.80;0.80;;;22.70;39.30;;;;;;8296199;28;20299;-39
2022/05/27 08:11:30;;;;;;;0.67;0.63;;;22.70;39.30;;;;;;8295775;28;20074;-39
2022/05/27 08:15:31;;;;;;;1.83;1.03;;;22.70;39.30;;;;;;8294955;28;20273;-39
2022/05/27 08:19:31;;;;;;;2.40;1.00;;;22.70;39.30;;;;;;8295700;28;20513;-40
2022/05/27 08:23:32;;;;;;;0.83;0.83;;;22.70;39.30;;;;;;8295656;28;20384;-40
2022/05/27 08:27:33;;;;;;;2.50;1.43;;;22.70;39.30;;;;;;8295271;28;20631;-40
2022/05/27 08:31:33;;;;;;;1.03;0.93;;;22.80;39.30;;;;;;8295517;28;20304;-40
2022/05/27 08:39:56;;;;;;;1.15;0.93;;;22.80;39.30;;;;;;8294740;28;20036;-39
2022/05/27 08:44:05;;;;;;;1.17;0.90;;;22.80;39.30;;;;;;8295475;28;20062;-39
2022/05/27 08:48:09;;;;;;;1.20;1.08;;;22.80;39.30;;;;;;8294805;28;20638;-40
2022/05/27 08:52:28;;;;;;;1.13;0.95;;;22.80;39.30;;;;;;8294807;28;20458;-40
2022/05/27 09:00:54;;;;;;;1.95;1.10;;;22.90;39.40;;;;;;8294029;28;20036;-39
2022/05/27 09:05:07;;;;;;;0.70;0.70;;;22.90;39.40;;;;;;8294699;28;20121;-40
2022/05/27 09:09:16;;;;;;;1.77;1.02;;;22.90;39.40;;;;;;8293925;28;20464;-40
2022/05/27 09:13:22;;;;;;;1.40;1.00;;;23.00;39.40;;;;;;8294322;28;20467;-40
2022/05/27 09:17:48;;;;;;;1.65;1.30;;;23.00;39.40;;;;;;8294627;28;20018;-41
2022/05/27 09:22:08;;;;;;;1.10;0.90;;;23.00;39.40;;;;;;8293340;28;20045;-40
2022/05/27 09:26:21;;;;;;;0.98;0.90;;;23.00;39.40;;;;;;8293644;28;20108;-40
2022/05/27 09:30:21;;;;;;;2.55;1.00;;;23.00;39.40;;;;;;8293615;28;20080;-40
2022/05/27 09:34:28;;;;;;;0.82;0.70;;;23.10;39.40;;;;;;8294025;28;20037;-40
2022/05/27 09:38:31;;;;;;;0.80;0.80;;;23.10;39.40;;;;;;8293189;28;20161;-40
2022/05/27 09:42:38;;;;;;;1.35;0.80;;;23.10;39.30;;;;;;8293219;28;20057;-40
2022/05/27 09:46:39;;;;;;;1.38;0.82;;;23.10;39.90;;;;;;8293316;28;20085;-40
2022/05/27 09:50:43;;;;;;;2.05;0.90;;;23.20;39.40;;;;;;8293109;28;20104;-40
2022/05/27 09:54:49;;;;;;;0.80;0.80;;;23.20;39.30;;;;;;8292560;28;20038;-40
2022/05/27 09:58:51;;;;;;;0.70;0.68;;;23.20;39.30;;;;;;8292651;28;20022;-40
2022/05/27 10:02:52;;;;;;;0.80;0.70;;;23.20;39.30;;;;;;8293199;28;20030;-40
2022/05/27 10:07:03;;;;;;;0.83;0.73;;;23.30;39.40;;;;;;8291964;28;20505;-40
2022/05/27 10:11:50;;;;;;;1.00;0.90;;;23.30;39.40;;;;;;8291896;28;20081;-41
2022/05/27 10:15:51;;;;;;;1.13;0.90;;;23.30;39.30;;;;;;8221512;28;20034;-41
2022/05/27 10:19:51;;;;;;;2.95;1.20;;;23.30;39.30;;;;;;8274721;28;20045;-41
2022/05/27 10:23:54;;;;;;;0.93;0.90;;;23.30;39.30;;;;;;8292276;28;20425;-40
2022/05/27 10:27:55;;;;;;;1.17;1.05;;;23.30;39.30;;;;;;8291644;28;20072;-40
2022/05/27 10:31:58;;;;;;;1.35;1.10;;;23.40;39.30;;;;;;8292098;28;20099;-41
2022/05/27 10:35:59;;;;;;;1.45;1.00;;;23.40;39.30;;;;;;8292135;28;20034;-40
2022/05/27 10:40:24;;;;;;;1.20;1.10;;;23.40;39.30;;;;;;8291358;28;20446;-41
2022/05/27 10:44:57;;;;;;;1.92;1.10;;;23.40;39.20;;;;;;8291483;28;20376;-41
2022/05/27 10:49:05;;;;;;;1.00;1.00;;;23.40;39.20;;;;;;8291394;28;20250;-41
2022/05/27 10:53:10;;;;;;;1.77;1.10;;;23.40;39.20;;;;;;8291794;28;20041;-41
2022/05/27 11:02:15;;;;;;;1.42;1.23;;;23.50;39.30;;;;;;8291307;28;20044;-41
2022/05/27 11:06:59;;;;;;;1.33;1.20;;;23.50;39.20;;;;;;8290828;28;20045;-41
2022/05/27 11:11:30;;;;;;;1.60;1.20;;;23.60;39.20;;;;;;8290684;28;20041;-41
2022/05/27 11:15:52;;;;;;;1.40;0.98;;;23.60;39.20;;;;;;8276131;28;20330;-41
2022/05/27 11:20:10;;;;;;;1.10;0.93;;;23.60;39.10;;;;;;8291139;28;20113;-41
2022/05/27 11:24:24;;;;;;;1.52;0.93;;;23.60;39.10;;;;;;8296017;28;20117;-40
2022/05/27 11:28:43;;;;;;;2.88;1.10;;;23.60;39.10;;;;;;8298016;28;20384;-39
2022/05/27 11:33:13;;;;;;;1.20;1.10;;;23.60;39.10;;;;;;8297439;28;20042;-40
2022/05/27 11:37:44;;;;;;;1.20;1.10;;;23.70;39.10;;;;;;8271249;28;20042;-39
2022/05/27 11:42:05;;;;;;;2.33;1.58;;;23.70;39.10;;;;;;8284525;28;20038;-40
2022/05/27 11:46:24;;;;;;;2.72;1.40;;;23.70;39.00;;;;;;8296677;28;20041;-40
2022/05/27 11:50:54;;;;;;;1.92;1.20;;;23.70;39.00;;;;;;8296760;28;20045;-40
2022/05/27 11:55:36;;;;;;;1.40;1.10;;;23.70;39.00;;;;;;8296272;28;20065;-40
2022/05/27 11:59:43;;;;;;;1.30;1.20;;;23.70;38.90;;;;;;8296108;28;20517;-40
2022/05/27 12:03:58;;;;;;;1.42;1.20;;;23.80;39.00;;;;;;8296185;28;20040;-40
2022/05/27 12:08:04;;;;;;;1.40;1.30;;;23.80;38.90;;;;;;8296392;28;20493;-40
2022/05/27 12:12:10;;;;;;;1.30;1.20;;;23.80;38.90;;;;;;8295735;28;20206;-40
2022/05/27 12:16:18;;;;;;;1.38;1.20;;;23.80;38.90;;;;;;8295967;28;20030;-40
2022/05/27 12:20:32;;;;;;;1.55;1.15;;;23.80;38.90;;;;;;8295946;28;20077;-40
2022/05/27 12:24:41;;;;;;;1.60;1.13;;;23.80;38.90;;;;;;8295674;28;20513;-41
2022/05/27 12:28:44;;;;;;;1.17;1.10;;;23.90;38.90;;;;;;8296616;28;20030;-41
2022/05/27 12:32:47;;;;;;;1.50;1.00;;;23.90;38.90;;;;;;8295005;28;20142;-41
2022/05/27 12:36:48;;;;;;;2.45;1.30;;;23.90;38.80;;;;;;8294737;28;20036;-41
2022/05/27 12:40:51;;;;;;;1.67;1.10;;;23.90;38.90;;;;;;8295278;28;20050;-41
2022/05/27 12:44:52;;;;;;;1.58;1.40;;;23.90;38.80;;;;;;8295263;28;20073;-41
2022/05/27 12:48:55;;;;;;;2.00;1.27;;;24.00;38.90;;;;;;8295548;28;20042;-41
2022/05/27 12:52:59;;;;;;;1.88;1.20;;;24.00;38.80;;;;;;8294917;28;20111;-41
2022/05/27 13:01:36;;;;;;;1.15;1.00;;;24.00;39.20;;;;;;8294321;28;20479;-41
2022/05/27 13:06:12;;;;;;;1.35;1.25;;;24.00;38.60;;;;;;8294853;28;20474;-41
2022/05/27 13:10:18;;;;;;;0.85;0.85;;;24.10;38.70;;;;;;8294727;28;20049;-41
2022/05/27 13:14:36;;;;;;;1.42;1.00;;;24.00;38.70;;;;;;8295016;28;20029;-40
2022/05/27 13:18:40;;;;;;;1.17;1.08;;;24.10;38.70;;;;;;8293764;28;20061;-40
2022/05/27 13:22:57;;;;;;;1.20;1.10;;;24.10;38.70;;;;;;8294565;28;20538;-41
2022/05/27 13:27:19;;;;;;;1.13;1.02;;;24.10;38.60;;;;;;8293793;28;20127;-41
2022/05/27 13:31:26;;;;;;;1.30;1.20;;;24.10;38.60;;;;;;8294033;28;20435;-41
2022/05/27 13:35:39;;;;;;;1.90;1.33;;;24.10;38.60;;;;;;8293839;28;20399;-41
2022/05/27 13:40:09;;;;;;;1.95;1.20;;;24.10;38.60;;;;;;8293628;28;20029;-41
2022/05/27 13:44:11;;;;;;;1.27;0.90;;;24.20;38.60;;;;;;8290242;28;20112;-41
2022/05/27 13:48:34;;;;;;;1.27;0.95;;;24.20;38.60;;;;;;8293305;28;20038;-41
2022/05/27 13:52:37;;;;;;;1.25;0.98;;;24.20;38.60;;;;;;8292851;28;20124;-41
2022/05/27 13:56:38;;;;;;;2.05;1.20;;;24.20;38.60;;;;;;8293160;28;20060;-41
2022/05/27 14:00:42;;;;;;;1.15;1.05;;;24.20;38.60;;;;;;8292739;28;20390;-41
2022/05/27 14:05:26;;;;;;;1.20;1.10;;;24.20;38.50;;;;;;8293293;28;20030;-41
2022/05/27 14:09:30;;;;;;;1.40;1.30;;;24.20;38.50;;;;;;8292615;28;20042;-41
2022/05/27 14:13:33;;;;;;;1.15;1.02;;;24.30;38.50;;;;;;8292994;28;20053;-41
2022/05/27 14:17:39;;;;;;;1.30;0.95;;;24.30;38.50;;;;;;8292544;28;20064;-41
2022/05/27 14:26:01;;;;;;;1.20;1.10;;;24.30;38.40;;;;;;8292105;28;20041;-41
2022/05/27 14:30:04;;;;;;;1.48;1.10;;;24.30;38.40;;;;;;8292350;28;20042;-40
2022/05/27 14:34:11;;;;;;;1.25;1.10;;;24.30;38.40;;;;;;8291709;28;20034;-40
2022/05/27 14:38:15;;;;;;;1.08;0.98;;;24.30;38.40;;;;;;8274073;28;20374;-41
2022/05/27 14:42:19;;;;;;;1.15;1.05;;;24.30;38.40;;;;;;8291329;28;20044;-40
2022/05/27 14:46:24;;;;;;;1.42;1.13;;;24.30;38.30;;;;;;8291536;28;20049;-40
2022/05/27 14:50:33;;;;;;;1.17;0.88;;;24.30;38.30;;;;;;8291720;28;20128;-40
2022/05/27 14:54:36;;;;;;;1.88;1.10;;;24.30;38.30;;;;;;8291130;28;20034;-40
2022/05/27 14:58:38;;;;;;;1.90;1.15;;;24.30;38.30;;;;;;8291375;28;20227;-40
2022/05/27 15:02:39;;;;;;;0.90;0.90;;;24.30;38.30;;;;;;8291880;28;20034;-41
2022/05/27 15:06:42;;;;;;;1.20;1.10;;;24.30;38.30;;;;;;8290988;28;20046;-41
2022/05/27 15:10:43;;;;;;;1.42;1.08;;;24.30;38.30;;;;;;8291195;28;20505;-41
2022/05/27 15:14:46;;;;;;;1.38;1.00;;;24.30;38.30;;;;;;8291346;28;20038;-41
2022/05/27 15:19:09;;;;;;;1.52;1.20;;;24.30;38.30;;;;;;8290528;28;20036;-41
2022/05/27 15:23:10;;;;;;;1.15;1.05;;;24.40;38.40;;;;;;8290978;28;20048;-41
2022/05/27 15:35:56;;;;;;;1.25;1.00;;;24.30;38.60;;;;;;8290815;28;20037;-41
2022/05/27 15:39:57;;;;;;;1.60;1.10;;;24.30;38.90;;;;;;8291449;28;20121;-41
2022/05/27 15:43:58;;;;;;;0.98;0.90;;;24.30;38.30;;;;;;8291195;28;20041;-41
2022/05/27 15:47:59;;;;;;;1.10;1.00;;;24.30;38.40;;;;;;8290545;28;20034;-40
2022/05/27 15:51:59;;;;;;;1.13;1.02;;;24.30;38.30;;;;;;8290023;28;20046;-40
2022/05/27 15:56:00;;;;;;;1.10;1.00;;;24.30;38.30;;;;;;8290617;28;20168;-39
2022/05/27 16:00:01;;;;;;;1.30;1.20;;;24.30;38.40;;;;;;8290556;28;20041;-39
2022/05/27 16:04:02;;;;;;;1.10;1.00;;;24.30;38.40;;;;;;8289688;28;20519;-40
2022/05/27 16:08:02;;;;;;;1.75;1.00;;;24.30;38.40;;;;;;8292482;28;20080;-40
2022/05/27 16:12:03;;;;;;;1.15;1.02;;;24.30;38.40;;;;;;8296262;28;20062;-39
2022/05/27 16:20:39;;;;;;;1.05;1.02;;;24.30;38.40;;;;;;8296495;28;20037;-40
2022/05/27 16:24:39;;;;;;;1.13;1.02;;;24.30;38.40;;;;;;8295942;28;20033;-42
2022/05/27 16:28:40;;;;;;;1.00;0.90;;;24.30;38.50;;;;;;8296333;28;20038;-40
2022/05/27 16:32:40;;;;;;;1.15;1.05;;;24.30;38.40;;;;;;8295377;28;20320;-40
2022/05/27 16:36:41;;;;;;;0.85;0.85;;;24.30;38.40;;;;;;8295589;28;20074;-40
2022/05/27 16:40:42;;;;;;;3.03;2.10;;;24.30;38.50;;;;;;8295677;28;20034;-40
2022/05/27 16:44:43;;;;;;;1.55;1.00;;;24.30;38.50;;;;;;8295428;28;20591;-40
2022/05/27 16:48:43;;;;;;;0.80;0.80;;;24.30;38.60;;;;;;8295469;28;20038;-40
2022/05/27 16:52:44;;;;;;;1.43;0.90;;;24.20;38.50;;;;;;8295099;28;20061;-40
2022/05/27 16:56:44;;;;;;;1.23;1.00;;;24.20;38.50;;;;;;8294918;28;20277;-40
2022/05/27 17:00:46;;;;;;;1.15;1.05;;;24.20;38.50;;;;;;8294750;28;20022;-40
2022/05/27 17:04:48;;;;;;;1.45;1.35;;;24.20;38.60;;;;;;8294973;28;20464;-40
2022/05/27 17:08:48;;;;;;;1.17;1.00;;;24.20;38.50;;;;;;8294582;28;20527;-41
2022/05/27 17:12:49;;;;;;;1.40;1.30;;;24.20;38.60;;;;;;8294479;28;20107;-40
2022/05/27 17:16:49;;;;;;;1.15;1.13;;;24.20;38.60;;;;;;8294253;28;20044;-40
2022/05/27 17:20:50;;;;;;;0.98;0.85;;;24.20;38.60;;;;;;8294025;28;20443;-40
2022/05/27 17:24:50;;;;;;;1.92;1.30;;;24.20;38.70;;;;;;8293994;28;20026;-40
2022/05/27 17:28:52;;;;;;;2.28;1.17;;;24.10;38.60;;;;;;8294351;28;20104;-40
2022/05/27 17:32:52;;;;;;;1.00;0.98;;;24.20;38.70;;;;;;8293887;28;20074;-40
2022/05/27 17:36:53;;;;;;;1.87;1.07;;;24.10;38.60;;;;;;8294102;28;20037;-40
2022/05/27 17:40:53;;;;;;;1.13;1.00;;;24.10;38.70;;;;;;8293953;28;20042;-40
2022/05/27 17:44:54;;;;;;;1.20;1.10;;;24.10;39.30;;;;;;8293901;28;20121;-40
2022/05/27 17:53:14;;;;;;;1.50;0.98;;;24.10;38.80;;;;;;8293386;28;20355;-40
2022/05/27 17:57:17;;;;;;;;;;;24.10;38.80;;;;;;8293561;28;20257;-40
2022/05/27 18:01:18;;;;;;;1.10;1.00;;;24.10;38.70;;;;;;8293288;28;20421;-41
2022/05/27 18:05:19;;;;;;;1.25;0.90;;;24.10;38.80;;;;;;8293055;28;20540;-41
2022/05/27 18:09:20;;;;;;;1.52;1.00;;;24.10;38.80;;;;;;8292198;28;20037;-40
2022/05/27 18:13:20;;;;;;;1.20;1.10;;;24.10;38.80;;;;;;8293050;28;20080;-41
2022/05/27 18:17:21;;;;;;;1.20;1.10;;;24.00;38.80;;;;;;8293132;28;20056;-41
2022/05/27 18:21:24;;;;;;;0.88;0.85;;;24.00;38.80;;;;;;8292252;28;20125;-40
2022/05/27 18:25:25;;;;;;;1.15;1.00;;;24.00;38.80;;;;;;8292605;28;20399;-41
2022/05/27 18:29:27;;;;;;;1.02;0.90;;;24.10;38.80;;;;;;8292585;28;20542;-40
2022/05/27 18:33:27;;;;;;;0.85;0.85;;;24.00;38.80;;;;;;8291147;28;20054;-40
2022/05/27 18:37:28;;;;;;;1.10;0.98;;;24.00;38.80;;;;;;8292257;28;20070;-41
2022/05/27 18:41:30;;;;;;;1.98;1.13;;;24.10;38.90;;;;;;8292323;28;20038;-40
2022/05/27 18:45:31;;;;;;;0.80;0.80;;;24.00;38.80;;;;;;8291655;28;20038;-41
2022/05/27 18:49:32;;;;;;;;;;;24.00;38.80;;;;;;8292379;28;20037;-41
2022/05/27 18:53:32;;;;;;;1.47;1.10;;;24.00;38.80;;;;;;8291418;28;19929;-40
2022/05/27 18:57:33;;;;;;;1.00;1.00;;;24.00;38.80;;;;;;8290948;28;20038;-41
2022/05/27 19:01:36;;;;;;;1.17;1.05;;;24.00;38.80;;;;;;8291742;28;20284;-40
2022/05/27 19:05:38;;;;;;;2.17;0.93;;;24.00;38.90;;;;;;8291213;28;20129;-40
2022/05/27 19:09:39;;;;;;;1.23;1.13;;;24.00;38.90;;;;;;8290950;28;20053;-40
2022/05/27 19:13:39;;;;;;;1.00;0.90;;;24.00;38.90;;;;;;8291300;28;20050;-40
2022/05/27 19:17:40;;;;;;;1.47;1.10;;;23.90;38.80;;;;;;8291285;28;20350;-40
2022/05/27 19:21:40;;;;;;;1.37;1.27;;;24.00;38.90;;;;;;8290967;28;20273;-40
2022/05/27 19:25:43;;;;;;;1.13;1.00;;;23.90;38.80;;;;;;8291024;28;20322;-40
2022/05/27 19:29:48;;;;;;;1.48;1.10;;;23.90;38.80;;;;;;8291084;28;20081;-41
2022/05/27 19:33:49;;;;;;;1.17;1.10;;;23.90;38.80;;;;;;8290534;28;20049;-40
2022/05/27 19:37:50;;;;;;;1.95;1.05;;;23.90;38.80;;;;;;8290949;28;20151;-40
2022/05/27 19:41:51;;;;;;;1.20;1.00;;;23.90;38.80;;;;;;8291052;28;20280;-40
2022/05/27 19:45:51;;;;;;;1.27;1.10;;;23.90;38.80;;;;;;8297002;28;20038;-40
2022/05/27 19:49:52;;;;;;;2.40;1.10;;;23.90;38.90;;;;;;8297643;28;20063;-40
2022/05/27 19:53:55;;;;;;;1.10;1.08;;;23.90;38.80;;;;;;8297341;28;20327;-40
2022/05/27 20:06:34;;;;;;;0.85;0.85;;;23.90;38.90;;;;;;8296680;28;20045;-40
2022/05/27 20:10:37;;;;;;;1.08;1.02;;;23.80;38.80;;;;;;8296430;28;20069;-40
2022/05/27 20:14:37;;;;;;;1.02;0.93;;;23.90;38.90;;;;;;8296657;28;20026;-40
2022/05/27 20:18:38;;;;;;;2.95;1.05;;;23.80;38.80;;;;;;8296084;28;20068;-40
2022/05/27 20:22:38;;;;;;;1.30;1.20;;;23.80;38.80;;;;;;8296150;28;20487;-40
2022/05/27 20:26:42;;;;;;;1.23;1.13;;;23.80;38.80;;;;;;8296734;28;20269;-40
2022/05/27 20:30:43;;;;;;;1.90;0.90;;;23.80;38.80;;;;;;8295356;28;20522;-40
2022/05/27 20:34:43;;;;;;;1.23;0.97;;;23.80;38.80;;;;;;8295983;28;20034;-40
2022/05/27 20:38:44;;;;;;;1.60;1.02;;;23.80;38.90;;;;;;8295888;28;20137;-40
2022/05/27 20:42:44;;;;;;;1.70;1.00;;;23.80;38.90;;;;;;8295466;28;20029;-40
2022/05/27 20:46:46;;;;;;;1.07;0.90;;;23.80;39.40;;;;;;8296021;28;20487;-40
2022/05/27 20:50:46;;;;;;;0.90;0.85;;;23.80;38.90;;;;;;8295393;28;20285;-40
2022/05/27 20:54:47;;;;;;;1.20;1.10;;;23.80;38.90;;;;;;8294613;28;20410;-40
2022/05/27 20:58:50;;;;;;;1.42;1.02;;;23.80;38.90;;;;;;8295496;28;20276;-40
2022/05/27 21:02:52;;;;;;;1.33;1.02;;;23.80;38.90;;;;;;8294915;28;20041;-40
2022/05/27 21:06:53;;;;;;;1.35;1.10;;;23.70;38.80;;;;;;8294685;28;20040;-40
2022/05/27 21:10:54;;;;;;;1.20;1.00;;;23.70;38.80;;;;;;8295398;28;20176;-40
2022/05/27 21:14:55;;;;;;;1.27;1.00;;;23.70;38.80;;;;;;8295051;28;20064;-40
2022/05/27 21:18:56;;;;;;;1.58;1.15;;;23.70;38.80;;;;;;8294691;28;20507;-40
2022/05/27 21:22:56;;;;;;;1.20;1.00;;;23.70;38.80;;;;;;8294738;28;20034;-40
2022/05/27 21:26:57;;;;;;;1.10;0.80;;;23.70;38.80;;;;;;8294728;28;20052;-39
2022/05/27 21:30:58;;;;;;;;;;;23.70;38.80;;;;;;8294354;28;20045;-39
2022/05/27 21:34:59;;;;;;;0.90;0.80;;;23.70;38.80;;;;;;8294190;28;19967;-40
2022/05/27 21:38:59;;;;;;;0.93;0.93;;;23.70;38.80;;;;;;8294101;28;20121;-40
2022/05/27 21:43:00;;;;;;;1.13;1.02;;;23.70;38.80;;;;;;8293302;28;20054;-40
2022/05/27 21:47:03;;;;;;;0.80;0.80;;;23.70;38.80;;;;;;8294250;28;20038;-40
2022/05/27 21:51:04;;;;;;;1.25;1.00;;;23.70;38.80;;;;;;8292825;28;20259;-39
2022/05/27 21:55:06;;;;;;;0.98;0.90;;;23.70;38.80;;;;;;8293684;28;20025;-39
2022/05/27 21:59:06;;;;;;;0.77;0.77;;;23.70;38.80;;;;;;8293697;28;20430;-39
2022/05/27 22:03:07;;;;;;;0.75;0.73;;;23.70;38.80;;;;;;8292851;28;20084;-40
2022/05/27 22:07:07;;;;;;;0.90;0.90;;;23.70;38.80;;;;;;8292568;28;20612;-39
2022/05/27 22:15:30;;;;;;;1.25;1.05;;;23.60;38.70;;;;;;8292403;28;20352;-40